Bookmark and Share
Track history (hours):
 

Amy-c

Last reported at 2014-Apr-23 14:33 UTC. Time now 2014-Apr-24 04:21 UTC.
Position N 50°14' W 001°27'.

Length 137 m; draft 6.4 m.

Type: Cargo ship. MMSI: 235010170.

NotesDate/timePositionNaut miles runAvg speedWind from/ knotsBaromVisibWave heightAir tempDewpointWater temp
2014-Apr-23 14:33N 50°14' W 001°27'1312.4
2014-Apr-23 13:33N 50°18' W 001°08'1313.6
2014-Apr-23 12:33N 50°22' W 000°48'1514.5
2014-Apr-23 11:32N 50°26' W 000°26'2015.1
2014-Apr-23 10:10N 50°31' E 000°05'914.5
2014-Apr-23 09:33N 50°34' E 000°19'1414.3
2014-Apr-23 08:33N 50°40' E 000°40'1413.5
2014-Apr-23 07:33N 50°48' E 000°57'1212.4
2014-Apr-23 06:33N 50°56' E 001°11'1211.7
2014-Apr-23 05:33N 51°03' E 001°25'1211.7
2014-Apr-23 04:33N 51°11' E 001°40'1312.9
2014-Apr-23 03:33N 51°21' E 001°54'1411.9
2014-Apr-23 02:20N 51°20' E 002°17'1114.6
2014-Apr-23 01:33N 51°23' E 002°35'1313.3
2014-Apr-23 00:33N 51°23' E 002°56'1515.2
2014-Apr-22 23:33N 51°24' E 003°20'1313.2
2014-Apr-22 22:33N 51°24' E 003°42'1010.2
2014-Apr-22 21:33N 51°25' E 003°58'9 8.7
2014-Apr-22 20:33N 51°24' E 004°12'5 4.8
2014-Apr-22 19:33N 51°21' E 004°17'3 3.2
2014-Apr-22 18:33N 51°18' E 004°20'3 3.4
2014-Apr-22 17:32N 51°15' E 004°22'0 0.0
2014-Apr-22 16:29N 51°15' E 004°22'0 0.0
2014-Apr-22 15:32N 51°15' E 004°22'0 0.0
2014-Apr-22 14:32N 51°15' E 004°22'0 0.0
2014-Apr-22 13:32N 51°15' E 004°22'0 0.0
2014-Apr-22 12:32N 51°15' E 004°22'0 0.0
2014-Apr-22 11:32N 51°15' E 004°22'0 0.0
2014-Apr-22 10:32N 51°15' E 004°22'0 0.0
2014-Apr-22 09:32N 51°15' E 004°22'0 0.0
2014-Apr-22 08:32N 51°15' E 004°22'0 0.0
2014-Apr-22 07:32N 51°15' E 004°22'0 0.0
2014-Apr-22 06:29N 51°15' E 004°22'0 0.0
2014-Apr-22 05:32N 51°15' E 004°22'0 0.0
2014-Apr-22 04:29N 51°15' E 004°22'0 0.0
2014-Apr-22 03:32N 51°15' E 004°22'0 0.0
2014-Apr-22 02:32N 51°15' E 004°22'0 0.0
2014-Apr-22 01:29N 51°15' E 004°22'0 0.0
2014-Apr-22 00:32N 51°15' E 004°22'0 0.0
2014-Apr-21 23:32N 51°15' E 004°22'0 0.0
2014-Apr-21 22:32N 51°15' E 004°22'0 0.0
2014-Apr-21 21:32N 51°15' E 004°22'0 0.0
2014-Apr-21 20:32N 51°15' E 004°22'0 0.0
2014-Apr-21 19:32N 51°15' E 004°22'0 0.0
2014-Apr-21 18:32N 51°15' E 004°22'0 0.0
2014-Apr-21 17:32N 51°15' E 004°22'0 0.0
2014-Apr-21 16:32N 51°15' E 004°22'0 0.0
2014-Apr-21 15:32N 51°15' E 004°22'0 0.0
2014-Apr-21 14:32N 51°15' E 004°22'0 0.0
2014-Apr-21 13:29N 51°15' E 004°22'0 0.0
2014-Apr-21 12:32N 51°15' E 004°22'0 0.0
2014-Apr-21 11:32N 51°15' E 004°22'0 0.0
2014-Apr-21 10:32N 51°15' E 004°22'0 0.0
2014-Apr-21 09:32N 51°15' E 004°22'0 0.0
2014-Apr-21 08:32N 51°15' E 004°22'0 0.0
2014-Apr-21 07:32N 51°15' E 004°22'0 0.0
2014-Apr-21 06:32N 51°15' E 004°22'0 0.0
2014-Apr-21 05:29N 51°15' E 004°22'0 0.0
2014-Apr-21 04:32N 51°15' E 004°22'0 0.0
2014-Apr-21 03:32N 51°15' E 004°22'0 0.0
2014-Apr-21 02:29N 51°15' E 004°22'0 0.0
2014-Apr-21 01:32N 51°15' E 004°22'0 0.0
2014-Apr-21 00:33N 51°15' E 004°22'0 0.0
2014-Apr-20 23:33N 51°15' E 004°22'0 0.0
2014-Apr-20 22:33N 51°15' E 004°22'0 0.0
2014-Apr-20 21:33N 51°15' E 004°22'0 0.0
2014-Apr-20 20:33N 51°15' E 004°22'0 0.0
2014-Apr-20 19:33N 51°15' E 004°22'0 0.0
2014-Apr-20 18:33N 51°15' E 004°22'0 0.0
2014-Apr-20 17:33N 51°15' E 004°22'3 2.7
2014-Apr-20 16:33N 51°17' E 004°20'4 4.0
2014-Apr-20 15:34N 51°21' E 004°17'1 0.6
2014-Apr-20 14:33N 51°21' E 004°16'5 4.5
2014-Apr-20 13:33N 51°23' E 004°10'9 8.9
2014-Apr-20 12:34N 51°23' E 003°56'1211.9
2014-Apr-20 11:33N 51°25' E 003°37'1010.4
2014-Apr-20 10:33N 51°24' E 003°21'1111.1
2014-Apr-20 09:34N 51°24' E 003°03'1211.8
2014-Apr-20 08:33N 51°22' E 002°45'5 4.8
2014-Apr-20 07:33N 51°22' E 002°37'4 4.1
2014-Apr-20 06:33N 51°22' E 002°30'8 7.5
2014-Apr-20 05:33N 51°18' E 002°20'1515.0
2014-Apr-20 04:32N 51°11' E 001°58'1616.1
2014-Apr-20 03:33N 51°01' E 001°39'4514.9
2014-Apr-20 00:30N 50°27' E 000°51'1815.1
2014-Apr-19 23:19N 50°22' E 000°24'5414.4
2014-Apr-19 19:34N 50°08' W 000°58'1211.9
2014-Apr-19 18:34N 50°05' W 001°16'  
2014-Apr-16 21:19N 38°37' W 009°23'810.5
2014-Apr-16 20:33N 38°41' W 009°14'6 6.4
2014-Apr-16 19:33N 38°44' W 009°06'0 0.0
2014-Apr-16 18:33N 38°44' W 009°06'0 0.0
2014-Apr-16 17:33N 38°44' W 009°06'0 0.0
2014-Apr-16 16:33N 38°44' W 009°06'0 0.0
2014-Apr-16 15:32N 38°44' W 009°06'0 0.0
2014-Apr-16 14:32N 38°44' W 009°06'0 0.0
2014-Apr-16 13:32N 38°44' W 009°06'0 0.0
2014-Apr-16 12:34N 38°44' W 009°06'0 0.0
2014-Apr-16 11:34N 38°44' W 009°06'0 0.0
2014-Apr-16 10:34N 38°44' W 009°06'0 0.0
2014-Apr-16 09:34N 38°44' W 009°06'0 0.0
2014-Apr-16 08:34N 38°44' W 009°06'0 0.0
2014-Apr-16 07:34N 38°44' W 009°06'0 0.0
2014-Apr-16 06:33N 38°44' W 009°06'0 0.0
2014-Apr-16 05:34N 38°44' W 009°06'0 0.0
2014-Apr-16 04:33N 38°44' W 009°06'0 0.0
2014-Apr-16 03:34N 38°44' W 009°06'0 0.0
2014-Apr-16 02:34N 38°44' W 009°06'0 0.0
2014-Apr-16 01:34N 38°44' W 009°06'0 0.0
2014-Apr-16 00:34N 38°44' W 009°06'0 0.0
2014-Apr-15 23:34N 38°44' W 009°06'0 0.0
2014-Apr-15 22:34N 38°44' W 009°06'0 0.0
2014-Apr-15 21:34N 38°44' W 009°06'0 0.0
2014-Apr-15 20:34N 38°44' W 009°06'0 0.0
2014-Apr-15 19:33N 38°44' W 009°06'0 0.0
2014-Apr-15 18:34N 38°44' W 009°06'0 0.0
2014-Apr-15 17:34N 38°44' W 009°06'0 0.0
2014-Apr-15 16:34N 38°44' W 009°06'0 0.0
2014-Apr-15 15:34N 38°44' W 009°06'0 0.0
2014-Apr-15 14:34N 38°44' W 009°06'0 0.0
2014-Apr-15 12:34N 38°44' W 009°06'0 0.0
2014-Apr-15 11:34N 38°44' W 009°06'0 0.0
2014-Apr-15 10:34N 38°44' W 009°06'0 0.0
2014-Apr-15 09:34N 38°44' W 009°06'0 0.0
2014-Apr-15 08:34N 38°44' W 009°06'0 0.0
2014-Apr-15 07:34N 38°44' W 009°06'0 0.0
2014-Apr-15 06:34N 38°44' W 009°06'0 0.0
2014-Apr-15 05:34N 38°44' W 009°06'0 0.0
2014-Apr-15 03:34N 38°44' W 009°06'0 0.0
2014-Apr-15 02:34N 38°44' W 009°06'0 0.0
2014-Apr-15 01:34N 38°44' W 009°06'0 0.0
2014-Apr-15 00:34N 38°44' W 009°06'0 0.0
2014-Apr-14 23:34N 38°44' W 009°06'0 0.0
2014-Apr-14 22:34N 38°44' W 009°06'0 0.0
2014-Apr-14 21:34N 38°44' W 009°06'0 0.0
2014-Apr-14 20:34N 38°44' W 009°06'0 0.0
2014-Apr-14 19:34N 38°44' W 009°06'0 0.0
2014-Apr-14 18:34N 38°44' W 009°06'0 0.0
2014-Apr-14 17:34N 38°44' W 009°06'0 0.0
2014-Apr-14 16:34N 38°44' W 009°06'0 0.0
2014-Apr-14 15:34N 38°44' W 009°06'0 0.0
2014-Apr-14 14:34N 38°44' W 009°06'0 0.0
2014-Apr-14 13:34N 38°44' W 009°06'0 0.0
2014-Apr-14 11:34N 38°44' W 009°06'0 0.0
2014-Apr-14 10:34N 38°44' W 009°06'0 0.0
2014-Apr-14 09:34N 38°44' W 009°06'0 0.0
2014-Apr-14 08:33N 38°44' W 009°06'0 0.0
2014-Apr-14 07:33N 38°44' W 009°06'0 0.0
2014-Apr-14 06:33N 38°44' W 009°06'0 0.0
2014-Apr-14 05:33N 38°44' W 009°06'70 9.8
2014-Apr-13 22:24N 38°04' W 010°20'2411.7
2014-Apr-13 20:24N 37°50' W 010°44'1412.1
2014-Apr-13 19:12N 37°41' W 010°59'  

Dump ship's entire track history

sailing weather and tide predictions

Amy-c — MKWC7 — position and weather